sensor_id;sensor_type;location;lat;lon;timestamp;P1;durP1;ratioP1;P2;durP2;ratioP2
71696;SDS011;68167;59.120;37.898;2024-01-30T00:00:14;8.57;;;3.00;;
71696;SDS011;68167;59.120;37.898;2024-01-30T00:02:41;8.17;;;4.00;;
71696;SDS011;68167;59.120;37.898;2024-01-30T00:05:09;6.50;;;3.40;;
71696;SDS011;68167;59.120;37.898;2024-01-30T00:07:35;6.83;;;3.50;;
71696;SDS011;68167;59.120;37.898;2024-01-30T00:10:02;7.03;;;3.50;;
71696;SDS011;68167;59.120;37.898;2024-01-30T00:12:29;7.93;;;3.60;;
71696;SDS011;68167;59.120;37.898;2024-01-30T00:14:57;8.63;;;3.27;;
71696;SDS011;68167;59.120;37.898;2024-01-30T00:17:24;9.53;;;3.70;;
71696;SDS011;68167;59.120;37.898;2024-01-30T00:19:52;6.83;;;3.10;;
71696;SDS011;68167;59.120;37.898;2024-01-30T00:22:19;11.33;;;4.53;;
71696;SDS011;68167;59.120;37.898;2024-01-30T00:24:45;9.23;;;3.40;;
71696;SDS011;68167;59.120;37.898;2024-01-30T00:27:12;7.83;;;3.50;;
71696;SDS011;68167;59.120;37.898;2024-01-30T00:29:38;16.50;;;4.60;;
71696;SDS011;68167;59.120;37.898;2024-01-30T00:32:05;14.20;;;3.50;;
71696;SDS011;68167;59.120;37.898;2024-01-30T00:34:32;13.00;;;4.20;;
71696;SDS011;68167;59.120;37.898;2024-01-30T00:36:58;11.27;;;3.70;;
71696;SDS011;68167;59.120;37.898;2024-01-30T00:39:24;13.97;;;3.80;;
71696;SDS011;68167;59.120;37.898;2024-01-30T00:41:51;12.23;;;3.70;;
71696;SDS011;68167;59.120;37.898;2024-01-30T00:44:17;8.43;;;2.93;;
71696;SDS011;68167;59.120;37.898;2024-01-30T00:46:44;11.07;;;3.43;;
71696;SDS011;68167;59.120;37.898;2024-01-30T00:49:10;7.70;;;2.73;;
71696;SDS011;68167;59.120;37.898;2024-01-30T00:51:37;6.83;;;3.17;;
71696;SDS011;68167;59.120;37.898;2024-01-30T00:54:03;9.57;;;3.20;;
71696;SDS011;68167;59.120;37.898;2024-01-30T00:56:32;15.77;;;4.10;;
71696;SDS011;68167;59.120;37.898;2024-01-30T00:58:59;25.67;;;4.77;;
71696;SDS011;68167;59.120;37.898;2024-01-30T01:01:25;13.87;;;4.20;;
71696;SDS011;68167;59.120;37.898;2024-01-30T01:03:52;10.40;;;3.83;;
71696;SDS011;68167;59.120;37.898;2024-01-30T01:06:18;17.13;;;4.27;;
71696;SDS011;68167;59.120;37.898;2024-01-30T01:08:45;12.80;;;3.80;;
71696;SDS011;68167;59.120;37.898;2024-01-30T01:11:11;17.87;;;3.60;;
71696;SDS011;68167;59.120;37.898;2024-01-30T01:13:38;13.23;;;3.47;;
71696;SDS011;68167;59.120;37.898;2024-01-30T01:16:04;8.80;;;3.63;;
71696;SDS011;68167;59.120;37.898;2024-01-30T01:18:31;7.17;;;3.03;;
71696;SDS011;68167;59.120;37.898;2024-01-30T01:20:57;10.90;;;4.17;;
71696;SDS011;68167;59.120;37.898;2024-01-30T01:23:24;10.17;;;3.50;;
71696;SDS011;68167;59.120;37.898;2024-01-30T01:25:51;7.33;;;3.30;;
71696;SDS011;68167;59.120;37.898;2024-01-30T01:28:17;5.77;;;3.13;;
71696;SDS011;68167;59.120;37.898;2024-01-30T01:30:44;6.23;;;3.33;;
71696;SDS011;68167;59.120;37.898;2024-01-30T01:33:11;8.37;;;3.53;;
71696;SDS011;68167;59.120;37.898;2024-01-30T01:35:40;10.67;;;3.50;;
71696;SDS011;68167;59.120;37.898;2024-01-30T01:38:07;8.10;;;3.20;;
71696;SDS011;68167;59.120;37.898;2024-01-30T01:40:33;11.13;;;3.30;;
71696;SDS011;68167;59.120;37.898;2024-01-30T01:43:02;10.23;;;3.40;;
71696;SDS011;68167;59.120;37.898;2024-01-30T01:45:31;7.93;;;3.30;;
71696;SDS011;68167;59.120;37.898;2024-01-30T01:47:57;9.53;;;3.57;;
71696;SDS011;68167;59.120;37.898;2024-01-30T01:50:24;10.80;;;3.93;;
71696;SDS011;68167;59.120;37.898;2024-01-30T01:52:50;11.33;;;3.70;;
71696;SDS011;68167;59.120;37.898;2024-01-30T01:55:19;10.70;;;4.03;;
71696;SDS011;68167;59.120;37.898;2024-01-30T01:57:52;11.60;;;4.00;;
71696;SDS011;68167;59.120;37.898;2024-01-30T02:00:20;10.33;;;3.77;;
71696;SDS011;68167;59.120;37.898;2024-01-30T02:02:46;9.27;;;4.30;;
71696;SDS011;68167;59.120;37.898;2024-01-30T02:05:14;11.57;;;4.10;;
71696;SDS011;68167;59.120;37.898;2024-01-30T02:07:42;10.40;;;4.00;;
71696;SDS011;68167;59.120;37.898;2024-01-30T02:10:13;11.80;;;4.37;;
71696;SDS011;68167;59.120;37.898;2024-01-30T02:12:40;8.37;;;3.90;;
71696;SDS011;68167;59.120;37.898;2024-01-30T02:15:06;8.77;;;4.27;;
71696;SDS011;68167;59.120;37.898;2024-01-30T02:17:39;13.80;;;4.87;;
71696;SDS011;68167;59.120;37.898;2024-01-30T02:20:06;14.23;;;4.27;;
71696;SDS011;68167;59.120;37.898;2024-01-30T02:22:34;11.60;;;4.20;;
71696;SDS011;68167;59.120;37.898;2024-01-30T02:25:02;12.77;;;4.03;;
71696;SDS011;68167;59.120;37.898;2024-01-30T02:27:32;14.87;;;4.87;;
71696;SDS011;68167;59.120;37.898;2024-01-30T02:29:58;12.87;;;4.57;;
71696;SDS011;68167;59.120;37.898;2024-01-30T02:32:25;12.60;;;3.90;;
71696;SDS011;68167;59.120;37.898;2024-01-30T02:34:51;22.07;;;5.70;;
71696;SDS011;68167;59.120;37.898;2024-01-30T02:37:18;7.73;;;3.83;;
71696;SDS011;68167;59.120;37.898;2024-01-30T02:39:44;16.00;;;5.03;;
71696;SDS011;68167;59.120;37.898;2024-01-30T02:42:11;10.40;;;4.00;;
71696;SDS011;68167;59.120;37.898;2024-01-30T02:44:37;17.13;;;4.37;;
71696;SDS011;68167;59.120;37.898;2024-01-30T02:47:04;12.80;;;4.17;;
71696;SDS011;68167;59.120;37.898;2024-01-30T02:49:30;11.03;;;4.10;;
71696;SDS011;68167;59.120;37.898;2024-01-30T02:51:57;15.93;;;5.47;;
71696;SDS011;68167;59.120;37.898;2024-01-30T02:54:24;16.70;;;4.43;;
71696;SDS011;68167;59.120;37.898;2024-01-30T02:56:50;26.73;;;6.97;;
71696;SDS011;68167;59.120;37.898;2024-01-30T02:59:17;27.23;;;7.07;;
71696;SDS011;68167;59.120;37.898;2024-01-30T03:01:44;28.17;;;7.30;;
71696;SDS011;68167;59.120;37.898;2024-01-30T03:04:10;32.83;;;8.93;;
71696;SDS011;68167;59.120;37.898;2024-01-30T03:06:37;23.50;;;8.63;;
71696;SDS011;68167;59.120;37.898;2024-01-30T03:09:04;29.13;;;8.10;;
71696;SDS011;68167;59.120;37.898;2024-01-30T03:11:30;22.33;;;8.90;;
71696;SDS011;68167;59.120;37.898;2024-01-30T03:13:57;18.70;;;5.77;;
71696;SDS011;68167;59.120;37.898;2024-01-30T03:16:24;23.63;;;7.27;;
71696;SDS011;68167;59.120;37.898;2024-01-30T03:18:50;28.47;;;6.93;;
71696;SDS011;68167;59.120;37.898;2024-01-30T03:21:17;21.93;;;7.53;;
71696;SDS011;68167;59.120;37.898;2024-01-30T03:23:43;21.33;;;8.70;;
71696;SDS011;68167;59.120;37.898;2024-01-30T03:26:10;26.03;;;10.30;;
71696;SDS011;68167;59.120;37.898;2024-01-30T03:28:38;31.20;;;10.87;;
71696;SDS011;68167;59.120;37.898;2024-01-30T03:31:05;29.23;;;10.40;;
71696;SDS011;68167;59.120;37.898;2024-01-30T03:33:31;25.00;;;8.73;;
71696;SDS011;68167;59.120;37.898;2024-01-30T03:36:02;24.27;;;10.00;;
71696;SDS011;68167;59.120;37.898;2024-01-30T03:38:29;33.03;;;10.67;;
71696;SDS011;68167;59.120;37.898;2024-01-30T03:40:56;37.10;;;11.90;;
71696;SDS011;68167;59.120;37.898;2024-01-30T03:43:23;26.40;;;10.43;;
71696;SDS011;68167;59.120;37.898;2024-01-30T03:45:49;25.63;;;9.37;;
71696;SDS011;68167;59.120;37.898;2024-01-30T03:48:16;32.67;;;12.03;;
71696;SDS011;68167;59.120;37.898;2024-01-30T03:50:42;33.33;;;13.07;;
71696;SDS011;68167;59.120;37.898;2024-01-30T03:53:09;26.93;;;13.60;;
71696;SDS011;68167;59.120;37.898;2024-01-30T03:55:36;25.43;;;10.50;;
71696;SDS011;68167;59.120;37.898;2024-01-30T03:58:02;21.40;;;10.30;;
71696;SDS011;68167;59.120;37.898;2024-01-30T04:00:29;32.13;;;14.30;;
71696;SDS011;68167;59.120;37.898;2024-01-30T04:02:55;30.83;;;12.63;;
71696;SDS011;68167;59.120;37.898;2024-01-30T04:05:22;24.40;;;12.07;;
71696;SDS011;68167;59.120;37.898;2024-01-30T04:07:48;29.97;;;12.90;;
71696;SDS011;68167;59.120;37.898;2024-01-30T04:10:15;39.53;;;18.87;;
71696;SDS011;68167;59.120;37.898;2024-01-30T04:12:42;31.87;;;14.23;;
71696;SDS011;68167;59.120;37.898;2024-01-30T04:15:09;24.13;;;11.27;;
71696;SDS011;68167;59.120;37.898;2024-01-30T04:17:35;23.83;;;10.80;;
71696;SDS011;68167;59.120;37.898;2024-01-30T04:20:02;19.63;;;11.27;;
71696;SDS011;68167;59.120;37.898;2024-01-30T04:22:30;28.43;;;11.47;;
71696;SDS011;68167;59.120;37.898;2024-01-30T04:24:57;26.13;;;11.20;;
71696;SDS011;68167;59.120;37.898;2024-01-30T04:27:23;22.47;;;9.63;;
71696;SDS011;68167;59.120;37.898;2024-01-30T04:29:50;24.20;;;10.10;;
71696;SDS011;68167;59.120;37.898;2024-01-30T04:32:16;17.80;;;6.93;;
71696;SDS011;68167;59.120;37.898;2024-01-30T04:34:43;15.63;;;5.97;;
71696;SDS011;68167;59.120;37.898;2024-01-30T04:37:10;14.20;;;6.23;;
71696;SDS011;68167;59.120;37.898;2024-01-30T04:39:36;21.73;;;6.87;;
71696;SDS011;68167;59.120;37.898;2024-01-30T04:42:03;19.27;;;7.23;;
71696;SDS011;68167;59.120;37.898;2024-01-30T04:44:30;36.97;;;15.27;;
71696;SDS011;68167;59.120;37.898;2024-01-30T04:46:56;47.53;;;21.47;;
71696;SDS011;68167;59.120;37.898;2024-01-30T04:49:25;70.63;;;23.13;;
71696;SDS011;68167;59.120;37.898;2024-01-30T04:51:51;62.23;;;23.53;;
71696;SDS011;68167;59.120;37.898;2024-01-30T04:54:18;67.30;;;24.97;;
71696;SDS011;68167;59.120;37.898;2024-01-30T04:56:44;33.50;;;12.40;;
71696;SDS011;68167;59.120;37.898;2024-01-30T04:59:11;16.53;;;7.60;;
71696;SDS011;68167;59.120;37.898;2024-01-30T05:01:38;23.77;;;8.73;;
71696;SDS011;68167;59.120;37.898;2024-01-30T05:04:07;14.73;;;6.20;;
71696;SDS011;68167;59.120;37.898;2024-01-30T05:06:35;13.77;;;5.67;;
71696;SDS011;68167;59.120;37.898;2024-01-30T05:09:02;15.10;;;5.70;;
71696;SDS011;68167;59.120;37.898;2024-01-30T05:11:31;19.60;;;5.97;;
71696;SDS011;68167;59.120;37.898;2024-01-30T05:14:06;14.10;;;6.07;;
71696;SDS011;68167;59.120;37.898;2024-01-30T05:16:33;17.73;;;7.20;;
71696;SDS011;68167;59.120;37.898;2024-01-30T05:19:00;16.07;;;8.13;;
71696;SDS011;68167;59.120;37.898;2024-01-30T05:21:26;22.93;;;9.47;;
71696;SDS011;68167;59.120;37.898;2024-01-30T05:23:53;25.73;;;8.57;;
71696;SDS011;68167;59.120;37.898;2024-01-30T05:26:20;32.80;;;9.30;;
71696;SDS011;68167;59.120;37.898;2024-01-30T05:28:47;22.57;;;7.73;;
71696;SDS011;68167;59.120;37.898;2024-01-30T05:31:14;28.33;;;6.83;;
71696;SDS011;68167;59.120;37.898;2024-01-30T05:33:40;29.90;;;6.70;;
71696;SDS011;68167;59.120;37.898;2024-01-30T05:36:07;27.87;;;7.07;;
71696;SDS011;68167;59.120;37.898;2024-01-30T05:38:37;31.20;;;8.30;;
71696;SDS011;68167;59.120;37.898;2024-01-30T05:41:03;20.40;;;5.27;;
71696;SDS011;68167;59.120;37.898;2024-01-30T05:43:30;18.30;;;5.93;;
71696;SDS011;68167;59.120;37.898;2024-01-30T05:45:57;17.10;;;6.07;;
71696;SDS011;68167;59.120;37.898;2024-01-30T05:48:23;14.83;;;4.57;;
71696;SDS011;68167;59.120;37.898;2024-01-30T05:50:50;16.40;;;4.87;;
71696;SDS011;68167;59.120;37.898;2024-01-30T05:53:16;35.30;;;8.53;;
71696;SDS011;68167;59.120;37.898;2024-01-30T05:55:43;33.63;;;6.37;;
71696;SDS011;68167;59.120;37.898;2024-01-30T05:58:09;37.67;;;7.40;;
71696;SDS011;68167;59.120;37.898;2024-01-30T06:00:36;24.03;;;5.50;;
71696;SDS011;68167;59.120;37.898;2024-01-30T06:03:02;21.23;;;5.87;;
71696;SDS011;68167;59.120;37.898;2024-01-30T06:05:30;43.77;;;6.80;;
71696;SDS011;68167;59.120;37.898;2024-01-30T06:07:57;26.23;;;6.27;;
71696;SDS011;68167;59.120;37.898;2024-01-30T06:10:23;25.03;;;6.87;;
71696;SDS011;68167;59.120;37.898;2024-01-30T06:12:50;20.93;;;5.70;;
71696;SDS011;68167;59.120;37.898;2024-01-30T06:15:16;21.43;;;5.30;;
71696;SDS011;68167;59.120;37.898;2024-01-30T06:17:43;20.27;;;5.20;;
71696;SDS011;68167;59.120;37.898;2024-01-30T06:20:10;17.70;;;6.17;;
71696;SDS011;68167;59.120;37.898;2024-01-30T06:22:36;21.73;;;4.87;;
71696;SDS011;68167;59.120;37.898;2024-01-30T06:25:03;19.83;;;4.90;;
71696;SDS011;68167;59.120;37.898;2024-01-30T06:27:30;20.30;;;5.93;;
71696;SDS011;68167;59.120;37.898;2024-01-30T06:29:57;22.47;;;5.63;;
71696;SDS011;68167;59.120;37.898;2024-01-30T06:32:23;28.13;;;5.33;;
71696;SDS011;68167;59.120;37.898;2024-01-30T06:34:50;24.80;;;5.40;;
71696;SDS011;68167;59.120;37.898;2024-01-30T06:37:17;21.47;;;4.83;;
71696;SDS011;68167;59.120;37.898;2024-01-30T06:39:43;26.53;;;5.90;;
71696;SDS011;68167;59.120;37.898;2024-01-30T06:42:10;35.67;;;5.40;;
71696;SDS011;68167;59.120;37.898;2024-01-30T06:44:37;29.10;;;5.33;;
71696;SDS011;68167;59.120;37.898;2024-01-30T06:47:04;23.40;;;5.10;;
71696;SDS011;68167;59.120;37.898;2024-01-30T06:49:31;17.23;;;4.80;;
71696;SDS011;68167;59.120;37.898;2024-01-30T06:51:57;19.37;;;5.00;;
71696;SDS011;68167;59.120;37.898;2024-01-30T06:54:24;32.70;;;5.40;;
71696;SDS011;68167;59.120;37.898;2024-01-30T06:56:50;27.93;;;6.87;;
71696;SDS011;68167;59.120;37.898;2024-01-30T06:59:17;16.33;;;4.90;;
71696;SDS011;68167;59.120;37.898;2024-01-30T07:01:43;11.43;;;4.50;;
71696;SDS011;68167;59.120;37.898;2024-01-30T07:04:11;10.20;;;3.90;;
71696;SDS011;68167;59.120;37.898;2024-01-30T07:06:38;10.20;;;4.00;;
71696;SDS011;68167;59.120;37.898;2024-01-30T07:09:05;13.00;;;4.23;;
71696;SDS011;68167;59.120;37.898;2024-01-30T07:11:31;10.00;;;4.50;;
71696;SDS011;68167;59.120;37.898;2024-01-30T07:13:58;14.70;;;4.90;;
71696;SDS011;68167;59.120;37.898;2024-01-30T07:16:24;8.97;;;3.80;;
71696;SDS011;68167;59.120;37.898;2024-01-30T07:18:51;9.33;;;4.13;;
71696;SDS011;68167;59.120;37.898;2024-01-30T07:21:18;12.90;;;3.67;;
71696;SDS011;68167;59.120;37.898;2024-01-30T07:23:44;14.80;;;4.40;;
71696;SDS011;68167;59.120;37.898;2024-01-30T07:26:14;11.57;;;3.87;;
71696;SDS011;68167;59.120;37.898;2024-01-30T07:28:40;11.30;;;3.80;;
71696;SDS011;68167;59.120;37.898;2024-01-30T07:31:07;13.10;;;4.53;;
71696;SDS011;68167;59.120;37.898;2024-01-30T07:33:34;8.10;;;4.00;;
71696;SDS011;68167;59.120;37.898;2024-01-30T07:36:00;11.40;;;4.30;;
71696;SDS011;68167;59.120;37.898;2024-01-30T07:38:27;9.33;;;4.23;;
71696;SDS011;68167;59.120;37.898;2024-01-30T07:40:54;10.47;;;4.00;;
71696;SDS011;68167;59.120;37.898;2024-01-30T07:43:21;11.77;;;4.07;;
71696;SDS011;68167;59.120;37.898;2024-01-30T07:45:48;9.37;;;4.40;;
71696;SDS011;68167;59.120;37.898;2024-01-30T07:48:15;14.00;;;4.50;;
71696;SDS011;68167;59.120;37.898;2024-01-30T07:50:42;11.27;;;4.40;;
71696;SDS011;68167;59.120;37.898;2024-01-30T07:53:08;13.50;;;6.10;;
71696;SDS011;68167;59.120;37.898;2024-01-30T07:55:35;15.63;;;6.10;;
71696;SDS011;68167;59.120;37.898;2024-01-30T07:58:01;20.17;;;5.97;;
71696;SDS011;68167;59.120;37.898;2024-01-30T08:00:30;14.87;;;5.37;;
71696;SDS011;68167;59.120;37.898;2024-01-30T08:02:56;12.07;;;5.30;;
71696;SDS011;68167;59.120;37.898;2024-01-30T08:05:24;13.33;;;5.33;;
71696;SDS011;68167;59.120;37.898;2024-01-30T08:07:51;10.63;;;4.70;;
71696;SDS011;68167;59.120;37.898;2024-01-30T08:10:18;10.70;;;4.90;;
71696;SDS011;68167;59.120;37.898;2024-01-30T08:12:45;10.17;;;4.30;;
71696;SDS011;68167;59.120;37.898;2024-01-30T08:15:16;12.83;;;4.90;;
71696;SDS011;68167;59.120;37.898;2024-01-30T08:21:09;9.60;;;4.57;;
71696;SDS011;68167;59.120;37.898;2024-01-30T08:23:37;11.57;;;5.20;;
71696;SDS011;68167;59.120;37.898;2024-01-30T08:26:10;10.33;;;5.13;;
71696;SDS011;68167;59.120;37.898;2024-01-30T08:28:41;14.83;;;5.93;;
71696;SDS011;68167;59.120;37.898;2024-01-30T08:31:13;15.10;;;5.80;;
71696;SDS011;68167;59.120;37.898;2024-01-30T08:33:44;18.03;;;6.47;;
71696;SDS011;68167;59.120;37.898;2024-01-30T08:36:16;16.53;;;6.10;;
71696;SDS011;68167;59.120;37.898;2024-01-30T08:38:48;16.03;;;6.27;;
71696;SDS011;68167;59.120;37.898;2024-01-30T08:41:20;15.17;;;6.40;;
71696;SDS011;68167;59.120;37.898;2024-01-30T08:43:52;17.13;;;6.30;;
71696;SDS011;68167;59.120;37.898;2024-01-30T08:46:24;11.23;;;6.23;;
71696;SDS011;68167;59.120;37.898;2024-01-30T08:48:56;26.70;;;6.20;;
71696;SDS011;68167;59.120;37.898;2024-01-30T08:51:22;16.27;;;7.43;;
71696;SDS011;68167;59.120;37.898;2024-01-30T08:53:48;15.40;;;5.80;;
71696;SDS011;68167;59.120;37.898;2024-01-30T08:56:15;16.77;;;6.30;;
71696;SDS011;68167;59.120;37.898;2024-01-30T08:58:42;13.97;;;5.20;;
71696;SDS011;68167;59.120;37.898;2024-01-30T09:01:10;11.57;;;5.37;;
71696;SDS011;68167;59.120;37.898;2024-01-30T09:03:37;20.50;;;6.30;;
71696;SDS011;68167;59.120;37.898;2024-01-30T09:06:09;15.90;;;5.77;;
71696;SDS011;68167;59.120;37.898;2024-01-30T09:08:35;9.73;;;4.70;;
71696;SDS011;68167;59.120;37.898;2024-01-30T09:11:07;13.43;;;5.80;;
71696;SDS011;68167;59.120;37.898;2024-01-30T09:13:35;12.80;;;5.20;;
71696;SDS011;68167;59.120;37.898;2024-01-30T09:16:01;17.70;;;5.70;;
71696;SDS011;68167;59.120;37.898;2024-01-30T09:18:27;19.40;;;5.23;;
71696;SDS011;68167;59.120;37.898;2024-01-30T09:20:54;11.67;;;4.83;;
71696;SDS011;68167;59.120;37.898;2024-01-30T09:23:20;13.47;;;5.23;;
71696;SDS011;68167;59.120;37.898;2024-01-30T09:25:47;12.00;;;4.70;;
71696;SDS011;68167;59.120;37.898;2024-01-30T09:28:14;13.80;;;5.40;;
71696;SDS011;68167;59.120;37.898;2024-01-30T09:30:41;11.17;;;4.70;;
71696;SDS011;68167;59.120;37.898;2024-01-30T09:33:07;14.60;;;5.37;;
71696;SDS011;68167;59.120;37.898;2024-01-30T09:35:34;18.03;;;5.50;;
71696;SDS011;68167;59.120;37.898;2024-01-30T09:38:02;11.87;;;5.10;;
71696;SDS011;68167;59.120;37.898;2024-01-30T09:40:32;15.77;;;5.17;;
71696;SDS011;68167;59.120;37.898;2024-01-30T09:42:58;13.00;;;5.07;;
71696;SDS011;68167;59.120;37.898;2024-01-30T09:45:28;13.27;;;6.13;;
71696;SDS011;68167;59.120;37.898;2024-01-30T09:47:55;13.60;;;5.73;;
71696;SDS011;68167;59.120;37.898;2024-01-30T09:50:25;12.70;;;4.93;;
71696;SDS011;68167;59.120;37.898;2024-01-30T09:52:53;18.10;;;5.17;;
71696;SDS011;68167;59.120;37.898;2024-01-30T09:55:21;13.80;;;4.97;;
71696;SDS011;68167;59.120;37.898;2024-01-30T09:57:49;13.17;;;5.20;;
71696;SDS011;68167;59.120;37.898;2024-01-30T10:00:15;15.03;;;5.10;;
71696;SDS011;68167;59.120;37.898;2024-01-30T10:02:42;13.00;;;4.70;;
71696;SDS011;68167;59.120;37.898;2024-01-30T10:05:15;16.37;;;5.57;;
71696;SDS011;68167;59.120;37.898;2024-01-30T10:07:55;15.87;;;6.20;;
71696;SDS011;68167;59.120;37.898;2024-01-30T10:10:23;12.67;;;5.60;;
71696;SDS011;68167;59.120;37.898;2024-01-30T10:12:49;12.87;;;4.97;;
71696;SDS011;68167;59.120;37.898;2024-01-30T10:15:17;15.90;;;5.37;;
71696;SDS011;68167;59.120;37.898;2024-01-30T10:17:45;16.50;;;4.73;;
71696;SDS011;68167;59.120;37.898;2024-01-30T10:20:12;10.10;;;4.70;;
71696;SDS011;68167;59.120;37.898;2024-01-30T10:22:40;11.57;;;4.33;;
71696;SDS011;68167;59.120;37.898;2024-01-30T10:25:10;13.57;;;5.20;;
71696;SDS011;68167;59.120;37.898;2024-01-30T10:27:39;13.73;;;5.30;;
71696;SDS011;68167;59.120;37.898;2024-01-30T10:30:06;13.20;;;4.60;;
71696;SDS011;68167;59.120;37.898;2024-01-30T10:32:33;13.03;;;5.23;;
71696;SDS011;68167;59.120;37.898;2024-01-30T10:35:00;15.87;;;4.57;;
71696;SDS011;68167;59.120;37.898;2024-01-30T10:37:28;11.60;;;4.57;;
71696;SDS011;68167;59.120;37.898;2024-01-30T10:39:58;12.30;;;4.63;;
71696;SDS011;68167;59.120;37.898;2024-01-30T10:42:31;9.53;;;4.07;;
71696;SDS011;68167;59.120;37.898;2024-01-30T10:45:08;18.13;;;5.77;;
71696;SDS011;68167;59.120;37.898;2024-01-30T10:47:40;16.70;;;4.37;;
71696;SDS011;68167;59.120;37.898;2024-01-30T10:50:09;10.03;;;4.37;;
71696;SDS011;68167;59.120;37.898;2024-01-30T10:52:36;12.47;;;5.10;;
71696;SDS011;68167;59.120;37.898;2024-01-30T10:55:03;12.70;;;3.80;;
71696;SDS011;68167;59.120;37.898;2024-01-30T10:57:36;10.20;;;4.30;;
71696;SDS011;68167;59.120;37.898;2024-01-30T11:00:04;9.53;;;4.43;;
71696;SDS011;68167;59.120;37.898;2024-01-30T11:02:40;9.90;;;4.43;;
71696;SDS011;68167;59.120;37.898;2024-01-30T11:05:09;11.40;;;4.33;;
71696;SDS011;68167;59.120;37.898;2024-01-30T11:07:39;11.20;;;4.80;;
71696;SDS011;68167;59.120;37.898;2024-01-30T11:10:09;12.20;;;4.73;;
71696;SDS011;68167;59.120;37.898;2024-01-30T11:12:39;12.27;;;4.83;;
71696;SDS011;68167;59.120;37.898;2024-01-30T11:15:11;19.23;;;5.60;;
71696;SDS011;68167;59.120;37.898;2024-01-30T11:17:44;13.27;;;5.27;;
71696;SDS011;68167;59.120;37.898;2024-01-30T11:20:14;12.90;;;4.70;;
71696;SDS011;68167;59.120;37.898;2024-01-30T11:22:44;17.57;;;5.77;;
71696;SDS011;68167;59.120;37.898;2024-01-30T11:25:12;14.33;;;4.67;;
71696;SDS011;68167;59.120;37.898;2024-01-30T11:27:40;9.23;;;4.33;;
71696;SDS011;68167;59.120;37.898;2024-01-30T11:30:08;13.87;;;4.63;;
71696;SDS011;68167;59.120;37.898;2024-01-30T11:32:35;12.83;;;4.37;;
71696;SDS011;68167;59.120;37.898;2024-01-30T11:35:03;14.17;;;5.90;;
71696;SDS011;68167;59.120;37.898;2024-01-30T11:37:32;13.43;;;5.80;;
71696;SDS011;68167;59.120;37.898;2024-01-30T11:40:03;17.60;;;5.77;;
71696;SDS011;68167;59.120;37.898;2024-01-30T11:42:30;17.87;;;5.93;;
71696;SDS011;68167;59.120;37.898;2024-01-30T11:44:59;20.97;;;6.10;;
71696;SDS011;68167;59.120;37.898;2024-01-30T11:47:30;16.27;;;5.70;;
71696;SDS011;68167;59.120;37.898;2024-01-30T11:49:57;13.93;;;6.60;;
71696;SDS011;68167;59.120;37.898;2024-01-30T11:52:23;15.10;;;6.03;;
71696;SDS011;68167;59.120;37.898;2024-01-30T11:54:50;16.23;;;5.90;;
71696;SDS011;68167;59.120;37.898;2024-01-30T11:57:17;11.10;;;5.00;;
71696;SDS011;68167;59.120;37.898;2024-01-30T11:59:44;14.50;;;5.23;;
71696;SDS011;68167;59.120;37.898;2024-01-30T12:02:16;17.27;;;5.33;;
71696;SDS011;68167;59.120;37.898;2024-01-30T12:04:43;11.17;;;4.00;;
71696;SDS011;68167;59.120;37.898;2024-01-30T12:07:10;17.07;;;5.60;;
71696;SDS011;68167;59.120;37.898;2024-01-30T12:09:38;17.03;;;5.50;;
71696;SDS011;68167;59.120;37.898;2024-01-30T12:12:06;13.43;;;4.80;;
71696;SDS011;68167;59.120;37.898;2024-01-30T12:14:38;15.57;;;4.10;;
71696;SDS011;68167;59.120;37.898;2024-01-30T12:17:06;11.30;;;4.87;;
71696;SDS011;68167;59.120;37.898;2024-01-30T12:19:34;13.53;;;3.90;;
71696;SDS011;68167;59.120;37.898;2024-01-30T12:22:01;10.33;;;4.33;;
71696;SDS011;68167;59.120;37.898;2024-01-30T12:24:28;11.03;;;4.13;;
71696;SDS011;68167;59.120;37.898;2024-01-30T12:26:56;10.80;;;4.63;;
71696;SDS011;68167;59.120;37.898;2024-01-30T12:29:24;10.53;;;3.90;;
71696;SDS011;68167;59.120;37.898;2024-01-30T12:31:54;14.00;;;4.13;;
71696;SDS011;68167;59.120;37.898;2024-01-30T12:34:21;10.50;;;4.07;;
71696;SDS011;68167;59.120;37.898;2024-01-30T12:36:47;10.13;;;4.20;;
71696;SDS011;68167;59.120;37.898;2024-01-30T12:39:17;11.67;;;4.23;;
71696;SDS011;68167;59.120;37.898;2024-01-30T12:41:44;12.43;;;3.73;;
71696;SDS011;68167;59.120;37.898;2024-01-30T12:44:11;12.20;;;3.50;;
71696;SDS011;68167;59.120;37.898;2024-01-30T12:46:40;9.57;;;3.37;;
71696;SDS011;68167;59.120;37.898;2024-01-30T12:49:06;11.67;;;3.77;;
71696;SDS011;68167;59.120;37.898;2024-01-30T12:51:34;9.50;;;3.27;;
71696;SDS011;68167;59.120;37.898;2024-01-30T12:54:04;6.63;;;3.00;;
71696;SDS011;68167;59.120;37.898;2024-01-30T12:56:31;10.43;;;3.60;;
71696;SDS011;68167;59.120;37.898;2024-01-30T12:58:59;7.67;;;3.50;;
71696;SDS011;68167;59.120;37.898;2024-01-30T13:01:26;13.80;;;3.73;;
71696;SDS011;68167;59.120;37.898;2024-01-30T13:03:52;15.27;;;3.87;;
71696;SDS011;68167;59.120;37.898;2024-01-30T13:06:19;12.77;;;4.17;;
71696;SDS011;68167;59.120;37.898;2024-01-30T13:08:46;10.53;;;4.00;;
71696;SDS011;68167;59.120;37.898;2024-01-30T13:11:12;14.17;;;4.37;;
71696;SDS011;68167;59.120;37.898;2024-01-30T13:13:39;10.90;;;4.50;;
71696;SDS011;68167;59.120;37.898;2024-01-30T13:16:05;15.67;;;5.47;;
71696;SDS011;68167;59.120;37.898;2024-01-30T13:18:32;12.87;;;5.73;;
71696;SDS011;68167;59.120;37.898;2024-01-30T13:20:58;12.43;;;4.77;;
71696;SDS011;68167;59.120;37.898;2024-01-30T13:23:25;14.70;;;5.43;;
71696;SDS011;68167;59.120;37.898;2024-01-30T13:25:56;20.63;;;6.97;;
71696;SDS011;68167;59.120;37.898;2024-01-30T13:28:27;20.57;;;5.93;;
71696;SDS011;68167;59.120;37.898;2024-01-30T13:30:54;12.87;;;5.70;;
71696;SDS011;68167;59.120;37.898;2024-01-30T13:33:20;11.87;;;4.90;;
71696;SDS011;68167;59.120;37.898;2024-01-30T13:35:47;13.70;;;5.23;;
71696;SDS011;68167;59.120;37.898;2024-01-30T13:38:13;9.83;;;4.60;;
71696;SDS011;68167;59.120;37.898;2024-01-30T13:40:41;15.27;;;5.33;;
71696;SDS011;68167;59.120;37.898;2024-01-30T13:43:10;18.00;;;5.03;;
71696;SDS011;68167;59.120;37.898;2024-01-30T13:45:37;12.80;;;4.50;;
71696;SDS011;68167;59.120;37.898;2024-01-30T13:48:08;12.87;;;4.67;;
71696;SDS011;68167;59.120;37.898;2024-01-30T13:50:34;10.67;;;4.00;;
71696;SDS011;68167;59.120;37.898;2024-01-30T13:53:02;9.57;;;4.53;;
71696;SDS011;68167;59.120;37.898;2024-01-30T13:55:30;9.50;;;4.03;;
71696;SDS011;68167;59.120;37.898;2024-01-30T13:57:56;15.20;;;4.20;;
71696;SDS011;68167;59.120;37.898;2024-01-30T14:00:23;10.23;;;4.03;;
71696;SDS011;68167;59.120;37.898;2024-01-30T14:02:51;11.03;;;4.17;;
71696;SDS011;68167;59.120;37.898;2024-01-30T14:05:20;11.27;;;4.33;;
71696;SDS011;68167;59.120;37.898;2024-01-30T14:07:50;14.90;;;4.80;;
71696;SDS011;68167;59.120;37.898;2024-01-30T14:10:18;14.37;;;4.77;;
71696;SDS011;68167;59.120;37.898;2024-01-30T14:12:44;16.77;;;5.70;;
71696;SDS011;68167;59.120;37.898;2024-01-30T14:15:11;22.17;;;6.50;;
71696;SDS011;68167;59.120;37.898;2024-01-30T14:17:39;18.87;;;7.03;;
71696;SDS011;68167;59.120;37.898;2024-01-30T14:20:05;35.13;;;9.00;;
71696;SDS011;68167;59.120;37.898;2024-01-30T14:22:36;30.00;;;8.50;;
71696;SDS011;68167;59.120;37.898;2024-01-30T14:25:03;25.67;;;8.37;;